Time;durP1;ratioP1;P1;durP2;ratioP2;P2;SDS_P1;SDS_P2;PMS_P1;PMS_P2;Temp;Humidity;BMP_temperature;BMP_pressure;BME280_temperature;BME280_humidity;BME280_pressure;Samples;Min_cycle;Max_cycle;Signal;HPM_P1;HPM_P2
2021/07/04 00:01:07;;;;;;;8.13;4.70;;;18.00;99.90;;;;;;1975670;72;21141;-74
2021/07/04 00:03:33;;;;;;;5.85;4.30;;;18.00;99.90;;;;;;1971708;72;21569;-74
2021/07/04 00:05:59;;;;;;;5.42;4.58;;;18.00;99.90;;;;;;1972032;72;21468;-76
2021/07/04 00:08:25;;;;;;;5.70;4.55;;;18.00;99.90;;;;;;1974396;72;21133;-74
2021/07/04 00:10:52;;;;;;;6.40;4.15;;;17.90;99.90;;;;;;1980202;71;21064;-75
2021/07/04 00:13:18;;;;;;;5.10;4.33;;;17.90;99.90;;;;;;1976984;72;21128;-75
2021/07/04 00:15:44;;;;;;;6.50;4.28;;;17.90;99.90;;;;;;1980967;72;21028;-74
2021/07/04 00:18:10;;;;;;;4.87;4.20;;;17.90;99.90;;;;;;1974356;72;21062;-75
2021/07/04 00:20:36;;;;;;;6.75;4.50;;;17.90;99.90;;;;;;1985030;72;21491;-75
2021/07/04 00:23:02;;;;;;;5.75;4.20;;;17.90;99.90;;;;;;1981668;72;21456;-76
2021/07/04 00:25:28;;;;;;;4.47;4.08;;;17.80;99.90;;;;;;1974477;72;21487;-73
2021/07/04 00:27:55;;;;;;;9.43;4.58;;;17.80;99.90;;;;;;1975390;71;21020;-73
2021/07/04 00:30:21;;;;;;;5.75;4.33;;;17.90;99.90;;;;;;1971591;70;21231;-75
2021/07/04 00:32:47;;;;;;;7.70;3.92;;;17.90;99.90;;;;;;1981652;71;21055;-75
2021/07/04 00:35:13;;;;;;;6.08;4.30;;;17.90;99.90;;;;;;1979597;72;21058;-76
2021/07/04 00:37:39;;;;;;;6.90;4.37;;;17.90;99.90;;;;;;1975710;72;21036;-75
2021/07/04 00:40:05;;;;;;;6.58;4.10;;;17.90;99.90;;;;;;1971148;72;21059;-75
2021/07/04 00:42:31;;;;;;;5.03;3.77;;;17.90;99.90;;;;;;1965139;72;21115;-73
2021/07/04 00:44:57;;;;;;;3.92;3.50;;;17.90;99.90;;;;;;1973430;72;21100;-75
2021/07/04 00:47:23;;;;;;;5.33;3.80;;;17.90;99.90;;;;;;1974660;72;21068;-75
2021/07/04 00:49:50;;;;;;;6.40;4.05;;;17.80;99.90;;;;;;1974682;73;21044;-75
2021/07/04 00:52:16;;;;;;;4.33;3.45;;;17.80;99.90;;;;;;1972283;72;21054;-75
2021/07/04 00:54:42;;;;;;;5.92;3.75;;;17.90;99.90;;;;;;1978614;72;21124;-75
2021/07/04 00:57:08;;;;;;;12.23;3.65;;;17.90;99.90;;;;;;1974218;72;21055;-75
2021/07/04 00:59:34;;;;;;;5.12;3.77;;;17.90;99.90;;;;;;1974486;73;21121;-76
2021/07/04 01:02:00;;;;;;;9.40;4.08;;;17.90;99.90;;;;;;1974513;73;21172;-75
2021/07/04 01:04:26;;;;;;;4.15;3.75;;;17.80;99.90;;;;;;1974489;73;21028;-76
2021/07/04 01:06:52;;;;;;;5.17;3.85;;;17.80;99.90;;;;;;1965254;72;21128;-76
2021/07/04 01:09:19;;;;;;;6.90;3.95;;;17.70;99.90;;;;;;1982617;72;21118;-75
2021/07/04 01:11:45;;;;;;;3.80;3.47;;;17.70;99.90;;;;;;1974531;72;21115;-76
2021/07/04 01:14:11;;;;;;;5.97;3.90;;;17.70;99.90;;;;;;1967749;72;21479;-75
2021/07/04 01:16:37;;;;;;;5.92;3.45;;;17.70;99.90;;;;;;1983566;72;21505;-75
2021/07/04 01:19:03;;;;;;;5.60;3.95;;;17.70;99.90;;;;;;1973350;72;21483;-75
2021/07/04 01:21:29;;;;;;;4.25;3.65;;;17.60;99.90;;;;;;1972127;72;21554;-75
2021/07/04 01:23:55;;;;;;;4.03;3.30;;;17.70;99.90;;;;;;1984464;72;21427;-73
2021/07/04 01:26:21;;;;;;;4.58;3.62;;;17.70;99.90;;;;;;1976638;72;21533;-74
2021/07/04 01:28:48;;;;;;;4.42;3.65;;;17.70;99.90;;;;;;1974354;72;21129;-74
2021/07/04 01:31:14;;;;;;;6.60;3.67;;;17.70;99.90;;;;;;1974482;73;21055;-73
2021/07/04 01:33:40;;;;;;;5.03;3.77;;;17.70;99.90;;;;;;1974502;73;21032;-73
2021/07/04 01:36:06;;;;;;;5.00;3.67;;;17.70;99.90;;;;;;1974469;72;21132;-74
2021/07/04 01:38:32;;;;;;;3.87;3.50;;;17.70;99.90;;;;;;1974646;73;21048;-75
2021/07/04 01:40:58;;;;;;;6.65;3.33;;;17.60;99.90;;;;;;1974533;72;21168;-74
2021/07/04 01:43:24;;;;;;;3.33;3.02;;;17.60;99.90;;;;;;1970212;72;21475;-75
2021/07/04 01:45:51;;;;;;;4.58;3.62;;;17.60;99.90;;;;;;1977552;72;21565;-75
2021/07/04 01:48:17;;;;;;;5.70;3.95;;;17.60;99.90;;;;;;1967578;72;21435;-74
2021/07/04 01:50:43;;;;;;;4.47;3.80;;;17.50;99.90;;;;;;1971185;72;21149;-75
2021/07/04 01:53:09;;;;;;;8.18;4.08;;;17.60;99.90;;;;;;1977476;72;21180;-74
2021/07/04 01:55:35;;;;;;;6.90;3.92;;;17.50;99.90;;;;;;1970606;72;21487;-74
2021/07/04 01:58:01;;;;;;;4.17;3.77;;;17.60;99.90;;;;;;1967033;72;21531;-74
2021/07/04 02:00:28;;;;;;;6.03;4.12;;;17.60;99.90;;;;;;1968166;72;21176;-75
2021/07/04 02:02:54;;;;;;;4.50;3.72;;;17.60;99.90;;;;;;1974415;72;21133;-75
2021/07/04 02:05:20;;;;;;;10.05;3.70;;;17.60;99.90;;;;;;1971237;72;21106;-74
2021/07/04 02:07:46;;;;;;;5.50;4.28;;;17.60;99.90;;;;;;1970804;72;21123;-74
2021/07/04 02:10:12;;;;;;;5.30;4.80;;;17.60;99.90;;;;;;1971370;72;21054;-74
2021/07/04 02:12:38;;;;;;;5.55;4.05;;;17.50;99.90;;;;;;1974114;72;21098;-74
2021/07/04 02:15:04;;;;;;;6.78;3.65;;;17.50;99.90;;;;;;1971654;72;21124;-73
2021/07/04 02:17:34;;;;;;;7.85;3.50;;;17.50;99.90;;;;;;1971447;72;21051;-73
2021/07/04 02:19:58;;;;;;;8.45;3.52;;;17.30;99.90;;;;;;1974991;72;21135;-74
2021/07/04 02:22:24;;;;;;;9.13;4.00;;;17.40;99.90;;;;;;1970127;72;21056;-74
2021/07/04 02:24:51;;;;;;;6.50;4.45;;;17.30;99.90;;;;;;1967210;72;21075;-74
2021/07/04 02:27:17;;;;;;;4.85;4.00;;;17.20;99.90;;;;;;1974286;72;21063;-74
2021/07/04 02:29:43;;;;;;;7.22;4.03;;;17.20;99.90;;;;;;1974290;73;21052;-74
2021/07/04 02:32:09;;;;;;;4.90;3.52;;;17.00;99.90;;;;;;1971437;72;21070;-73
2021/07/04 02:34:35;;;;;;;4.55;3.52;;;17.10;99.90;;;;;;1979676;72;21031;-74
2021/07/04 02:37:01;;;;;;;4.58;3.20;;;17.10;99.90;;;;;;1973329;72;21047;-74
2021/07/04 02:39:27;;;;;;;6.15;4.20;;;17.00;99.90;;;;;;1964032;72;21139;-74
2021/07/04 02:41:53;;;;;;;8.00;3.90;;;17.00;99.90;;;;;;1978641;72;21203;-74
2021/07/04 02:44:20;;;;;;;7.33;4.72;;;17.00;99.90;;;;;;1962584;72;21458;-73
2021/07/04 02:46:46;;;;;;;12.10;4.20;;;17.00;99.90;;;;;;1972447;72;21442;-74
2021/07/04 02:49:12;;;;;;;5.95;4.17;;;17.00;99.90;;;;;;1972388;72;21457;-74
2021/07/04 02:51:38;;;;;;;9.23;4.58;;;16.90;99.90;;;;;;1984964;72;21450;-74
2021/07/04 02:54:04;;;;;;;10.32;4.78;;;16.90;99.90;;;;;;1979962;72;21486;-74
2021/07/04 02:56:30;;;;;;;7.30;4.55;;;16.90;99.90;;;;;;1969509;72;21466;-74
2021/07/04 02:58:56;;;;;;;8.03;4.50;;;16.90;99.90;;;;;;1981927;72;21044;-74
2021/07/04 03:01:22;;;;;;;4.55;4.15;;;16.90;99.90;;;;;;1981075;72;21059;-74
2021/07/04 03:03:49;;;;;;;5.47;3.92;;;16.90;99.90;;;;;;1976248;72;21049;-74
2021/07/04 03:06:15;;;;;;;7.37;3.65;;;16.90;99.90;;;;;;1977811;72;21080;-74
2021/07/04 03:08:43;;;;;;;7.17;4.37;;;17.00;99.90;;;;;;1967893;72;21087;-74
2021/07/04 03:11:09;;;;;;;6.83;4.20;;;17.00;99.90;;;;;;1977757;72;21816;-74
2021/07/04 03:13:35;;;;;;;10.40;4.08;;;17.10;99.90;;;;;;1976082;72;21493;-74
2021/07/04 03:16:01;;;;;;;4.42;3.62;;;17.00;99.90;;;;;;1974241;72;21495;-75
2021/07/04 03:18:27;;;;;;;7.70;3.77;;;17.10;99.90;;;;;;1966872;72;21605;-74
2021/07/04 03:20:53;;;;;;;12.18;3.80;;;17.10;99.90;;;;;;1968525;72;21512;-75
2021/07/04 03:23:19;;;;;;;7.08;3.72;;;17.10;99.90;;;;;;1964982;72;21549;-74
2021/07/04 03:25:45;;;;;;;5.45;4.17;;;17.10;99.90;;;;;;1981967;72;22593;-75
2021/07/04 03:28:11;;;;;;;5.10;3.87;;;17.10;99.90;;;;;;1972886;72;21451;-74
2021/07/04 03:30:38;;;;;;;4.95;3.67;;;17.20;99.90;;;;;;1978902;72;21032;-74
2021/07/04 03:33:04;;;;;;;6.20;3.90;;;17.10;99.90;;;;;;1972741;72;21116;-75
2021/07/04 03:35:30;;;;;;;4.58;3.20;;;17.10;99.90;;;;;;1975460;72;21095;-74
2021/07/04 03:37:56;;;;;;;4.50;3.85;;;17.20;99.90;;;;;;1967265;72;21060;-74
2021/07/04 03:40:22;;;;;;;5.90;4.30;;;17.20;99.90;;;;;;1971059;72;21040;-75
2021/07/04 03:42:50;;;;;;;6.97;4.78;;;17.10;99.90;;;;;;1974336;72;21048;-75
2021/07/04 03:45:16;;;;;;;4.58;3.98;;;17.10;99.90;;;;;;1971025;72;21533;-74
2021/07/04 03:47:42;;;;;;;4.00;3.60;;;17.00;99.90;;;;;;1977529;72;21475;-74
2021/07/04 03:50:08;;;;;;;5.60;4.35;;;17.00;99.90;;;;;;1962756;72;21555;-74
2021/07/04 03:52:34;;;;;;;7.55;4.10;;;17.10;99.90;;;;;;1975167;72;21544;-73
2021/07/04 03:55:00;;;;;;;5.33;4.03;;;17.10;99.90;;;;;;1974924;72;21541;-75
2021/07/04 03:57:28;;;;;;;8.28;4.62;;;17.20;99.90;;;;;;1976009;72;21048;-74
2021/07/04 03:59:54;;;;;;;6.33;4.35;;;17.20;99.90;;;;;;1974481;72;21083;-74
2021/07/04 04:02:20;;;;;;;6.40;4.92;;;17.10;99.90;;;;;;1970814;72;21137;-73
2021/07/04 04:04:46;;;;;;;11.38;4.80;;;17.20;99.90;;;;;;1991290;72;21043;-74
2021/07/04 04:07:12;;;;;;;11.50;4.72;;;17.30;99.90;;;;;;1972533;68;21074;-73
2021/07/04 04:09:39;;;;;;;5.97;4.40;;;17.30;99.90;;;;;;1976934;72;21148;-74
2021/07/04 04:12:05;;;;;;;9.10;4.17;;;17.40;99.90;;;;;;1974359;72;21055;-73
2021/07/04 04:14:31;;;;;;;7.90;4.75;;;17.40;99.90;;;;;;1973341;72;21136;-74
2021/07/04 04:16:57;;;;;;;5.40;4.37;;;17.50;99.90;;;;;;1975434;72;21122;-74
2021/07/04 04:19:23;;;;;;;5.45;4.40;;;17.50;99.90;;;;;;1974563;73;21130;-73
2021/07/04 04:21:49;;;;;;;6.00;4.78;;;17.50;99.90;;;;;;1983637;72;21054;-74
2021/07/04 04:24:15;;;;;;;7.00;4.90;;;17.50;99.90;;;;;;1972925;72;21064;-75
2021/07/04 04:26:42;;;;;;;7.40;4.78;;;17.50;99.90;;;;;;1978903;72;21063;-75
2021/07/04 04:29:08;;;;;;;6.05;4.30;;;17.60;99.90;;;;;;1967427;72;21054;-72
2021/07/04 04:31:34;;;;;;;6.22;4.58;;;17.70;99.90;;;;;;1973365;72;21044;-74
2021/07/04 04:34:00;;;;;;;9.70;5.37;;;17.80;99.90;;;;;;1974992;72;21180;-73
2021/07/04 04:36:26;;;;;;;5.40;4.37;;;17.80;99.90;;;;;;1974226;72;21056;-73
2021/07/04 04:38:52;;;;;;;6.05;4.70;;;17.80;99.90;;;;;;1977559;72;21075;-74
2021/07/04 04:41:19;;;;;;;5.58;4.17;;;18.00;99.90;;;;;;1968364;72;21026;-73
2021/07/04 04:43:45;;;;;;;11.73;4.10;;;18.00;99.90;;;;;;1969272;72;21030;-72
2021/07/04 04:46:11;;;;;;;10.23;4.60;;;18.10;99.90;;;;;;1975790;72;21168;-74
2021/07/04 04:48:38;;;;;;;6.15;4.00;;;18.30;99.90;;;;;;1969283;72;21058;-74
2021/07/04 04:51:04;;;;;;;7.83;4.22;;;18.30;99.90;;;;;;1982090;72;21050;-73
2021/07/04 04:53:30;;;;;;;9.10;4.47;;;18.30;99.90;;;;;;1991506;72;21086;-73
2021/07/04 04:55:56;;;;;;;12.37;4.37;;;18.30;99.90;;;;;;1975750;72;21129;-74
2021/07/04 04:58:22;;;;;;;7.47;4.42;;;18.30;99.90;;;;;;1974354;72;21051;-75
2021/07/04 05:00:48;;;;;;;5.20;4.40;;;18.30;99.90;;;;;;1974303;72;21040;-75
2021/07/04 05:03:14;;;;;;;4.20;3.80;;;18.20;99.90;;;;;;1972627;72;21059;-78
2021/07/04 05:05:40;;;;;;;5.70;4.20;;;18.40;99.90;;;;;;1968838;72;21058;-77
2021/07/04 05:08:07;;;;;;;5.70;4.10;;;18.40;99.90;;;;;;1976176;72;21058;-76
2021/07/04 05:10:33;;;;;;;7.12;3.65;;;18.50;99.90;;;;;;1971937;72;21031;-74
2021/07/04 05:12:59;;;;;;;7.25;3.87;;;18.60;99.90;;;;;;1972856;72;21042;-77
2021/07/04 05:15:25;;;;;;;7.87;3.92;;;18.60;99.90;;;;;;1982087;72;21074;-78
2021/07/04 05:17:51;;;;;;;5.12;3.62;;;18.60;99.90;;;;;;1991405;72;21055;-79
2021/07/04 05:20:17;;;;;;;9.90;3.77;;;18.80;99.90;;;;;;1969344;72;21059;-74
2021/07/04 05:22:43;;;;;;;4.35;3.30;;;18.90;99.90;;;;;;1965745;72;21040;-78
2021/07/04 05:25:09;;;;;;;7.47;3.72;;;18.90;99.90;;;;;;1966872;72;21089;-72
2021/07/04 05:27:36;;;;;;;5.65;3.67;;;19.00;99.90;;;;;;1973796;72;21055;-77
2021/07/04 05:30:02;;;;;;;6.10;3.67;;;19.10;99.90;;;;;;1980278;72;21055;-72
2021/07/04 05:32:28;;;;;;;7.33;4.58;;;19.30;99.90;;;;;;1973790;72;21213;-71
2021/07/04 05:34:55;;;;;;;8.75;4.25;;;19.40;99.90;;;;;;1972372;72;21048;-74
2021/07/04 05:37:21;;;;;;;4.75;3.77;;;19.60;99.90;;;;;;1973101;72;21115;-74
2021/07/04 05:39:47;;;;;;;5.58;3.92;;;20.00;99.90;;;;;;1972574;72;21060;-74
2021/07/04 05:42:13;;;;;;;5.80;3.62;;;20.10;99.90;;;;;;1976212;72;21043;-73
2021/07/04 05:44:39;;;;;;;6.67;3.70;;;20.10;99.90;;;;;;1974325;72;21130;-77
2021/07/04 05:47:05;;;;;;;3.42;3.12;;;20.20;99.90;;;;;;1974409;73;21060;-72
2021/07/04 05:49:31;;;;;;;4.20;3.70;;;20.40;99.90;;;;;;1974223;72;21124;-71
2021/07/04 05:51:57;;;;;;;6.33;3.70;;;20.60;99.90;;;;;;1967748;72;21131;-70
2021/07/04 05:54:24;;;;;;;5.85;3.58;;;20.80;99.90;;;;;;1970518;72;21055;-71
2021/07/04 05:56:50;;;;;;;7.03;3.37;;;21.00;99.90;;;;;;1973206;72;21066;-71
2021/07/04 05:59:16;;;;;;;3.72;2.90;;;21.50;99.90;;;;;;1970244;72;21079;-71
2021/07/04 06:01:42;;;;;;;4.92;3.45;;;21.90;99.90;;;;;;1968704;72;21565;-72
2021/07/04 06:04:08;;;;;;;4.03;3.10;;;21.70;99.90;;;;;;1968178;72;21468;-72
2021/07/04 06:06:34;;;;;;;4.42;2.30;;;21.70;99.90;;;;;;1972367;72;21459;-72
2021/07/04 06:09:00;;;;;;;2.90;2.62;;;21.90;99.90;;;;;;1970696;72;21547;-72
2021/07/04 06:11:28;;;;;;;6.55;2.50;;;21.90;99.90;;;;;;1970481;72;21055;-72
2021/07/04 06:13:54;;;;;;;2.40;2.20;;;21.80;99.90;;;;;;1973787;72;21098;-71
2021/07/04 06:16:20;;;;;;;5.00;2.55;;;21.30;99.90;;;;;;1967559;72;21111;-72
2021/07/04 06:18:46;;;;;;;4.05;2.45;;;21.20;99.90;;;;;;1978059;72;21054;-72
2021/07/04 06:21:13;;;;;;;3.00;2.30;;;21.20;99.90;;;;;;1969733;72;21062;-73
2021/07/04 06:23:39;;;;;;;3.30;2.45;;;21.50;99.90;;;;;;1981890;72;21058;-72
2021/07/04 06:26:05;;;;;;;3.50;2.62;;;21.60;99.90;;;;;;1965847;72;21063;-74
2021/07/04 06:28:31;;;;;;;2.40;2.20;;;21.50;99.90;;;;;;1967687;72;21168;-72
2021/07/04 06:30:57;;;;;;;6.40;2.12;;;21.60;99.90;;;;;;1985919;72;21028;-73
2021/07/04 06:33:23;;;;;;;2.85;2.35;;;22.20;99.90;;;;;;1977415;72;21148;-72
2021/07/04 06:35:50;;;;;;;4.20;2.42;;;22.70;99.90;;;;;;1974597;72;21092;-72
2021/07/04 06:38:16;;;;;;;2.45;2.25;;;23.50;99.90;;;;;;1974424;73;21078;-73
2021/07/04 06:40:42;;;;;;;3.50;2.00;;;24.50;99.90;;;;;;1974280;72;21494;-72
2021/07/04 06:43:08;;;;;;;2.55;2.05;;;25.50;99.90;;;;;;1976462;72;21039;-80
2021/07/04 06:45:34;;;;;;;2.45;2.02;;;25.80;99.90;;;;;;1969972;72;21055;-84
2021/07/04 06:48:00;;;;;;;2.20;2.00;;;25.10;99.90;;;;;;1982697;72;21087;-84
2021/07/04 06:50:26;;;;;;;1.77;1.67;;;25.60;99.90;;;;;;1976518;72;21137;-83
2021/07/04 06:52:53;;;;;;;2.47;1.80;;;25.60;99.90;;;;;;1965726;72;21050;-83
2021/07/04 06:55:19;;;;;;;2.47;1.92;;;25.70;99.90;;;;;;1972665;72;21036;-81
2021/07/04 06:57:46;;;;;;;2.80;2.12;;;25.00;99.90;;;;;;1969246;72;21059;-83
2021/07/04 07:00:12;;;;;;;1.90;1.80;;;24.10;99.90;;;;;;1969715;72;21141;-82
2021/07/04 07:02:38;;;;;;;1.72;1.62;;;23.90;99.90;;;;;;1974433;73;21182;-83
2021/07/04 07:05:04;;;;;;;4.10;2.25;;;23.80;99.90;;;;;;1966537;72;21059;-82
2021/07/04 07:07:30;;;;;;;4.72;2.12;;;23.80;99.90;;;;;;1965048;72;21138;-81
2021/07/04 07:09:56;;;;;;;2.87;1.82;;;23.90;99.90;;;;;;1971456;72;21137;-78
2021/07/04 07:12:22;;;;;;;2.70;2.00;;;23.60;99.90;;;;;;1983055;72;21052;-80
2021/07/04 07:14:48;;;;;;;1.82;1.70;;;23.10;99.90;;;;;;1977487;72;21054;-82
2021/07/04 07:17:15;;;;;;;2.35;1.80;;;22.80;99.90;;;;;;1974451;73;21022;-82
2021/07/04 07:19:41;;;;;;;6.45;1.80;;;22.20;99.90;;;;;;1968791;72;21106;-82
2021/07/04 07:22:07;;;;;;;2.42;1.87;;;22.20;99.90;;;;;;1982465;72;21063;-81
2021/07/04 07:24:33;;;;;;;3.40;2.10;;;22.00;99.90;;;;;;1966951;72;21129;-82
2021/07/04 07:26:59;;;;;;;5.30;2.25;;;21.90;99.90;;;;;;1965273;72;21136;-82
2021/07/04 07:29:25;;;;;;;4.35;2.60;;;21.80;99.90;;;;;;1975780;72;21129;-81
2021/07/04 07:31:51;;;;;;;2.80;2.25;;;22.30;99.90;;;;;;1973500;72;21058;-82
2021/07/04 07:34:18;;;;;;;2.37;2.15;;;23.00;99.90;;;;;;1974275;72;21121;-83
2021/07/04 07:36:44;;;;;;;2.10;1.95;;;24.30;99.90;;;;;;1963890;72;21066;-83
2021/07/04 07:39:10;;;;;;;2.58;2.33;;;25.10;99.90;;;;;;1978079;72;21036;-82
2021/07/04 07:41:36;;;;;;;2.47;2.10;;;24.70;99.90;;;;;;1972333;70;21011;-84
2021/07/04 07:44:02;;;;;;;1.87;1.75;;;24.30;99.90;;;;;;1978128;70;21176;-81
2021/07/04 07:46:28;;;;;;;2.65;2.45;;;22.90;99.90;;;;;;1971439;72;21047;-79
2021/07/04 07:48:54;;;;;;;2.30;2.10;;;22.30;99.90;;;;;;1986306;72;21125;-78
2021/07/04 07:51:20;;;;;;;4.87;2.17;;;21.90;99.90;;;;;;1977642;72;21059;-80
2021/07/04 07:53:47;;;;;;;3.05;2.45;;;21.90;99.90;;;;;;1977496;72;21112;-79
2021/07/04 07:56:13;;;;;;;3.52;2.02;;;22.20;99.90;;;;;;1974143;72;21063;-79
2021/07/04 07:58:43;;;;;;;6.83;1.98;;;23.20;99.90;;;;;;1973728;72;21067;-78
2021/07/04 08:01:07;;;;;;;2.10;1.90;;;23.50;99.90;;;;;;1970453;72;21052;-78
2021/07/04 08:03:33;;;;;;;2.20;2.00;;;23.90;99.90;;;;;;1965227;72;21071;-77
2021/07/04 08:05:59;;;;;;;4.83;2.05;;;24.30;99.90;;;;;;1985072;72;21059;-80
2021/07/04 08:08:25;;;;;;;2.70;2.25;;;24.40;99.90;;;;;;1975568;72;21059;-77
2021/07/04 08:10:51;;;;;;;2.60;2.22;;;24.10;99.90;;;;;;1966066;72;21083;-78
2021/07/04 08:13:20;;;;;;;1.82;1.70;;;24.60;99.90;;;;;;1975370;72;21063;-75
2021/07/04 08:15:46;;;;;;;7.03;1.87;;;25.40;99.90;;;;;;1973061;72;21051;-79
2021/07/04 08:18:12;;;;;;;1.77;1.67;;;26.20;99.90;;;;;;1964048;72;21115;-80
2021/07/04 08:20:38;;;;;;;2.60;1.92;;;26.50;99.90;;;;;;1979753;72;21063;-81
2021/07/04 08:23:04;;;;;;;2.02;1.82;;;26.60;99.90;;;;;;1974403;73;21086;-81
2021/07/04 08:25:31;;;;;;;2.75;2.12;;;26.20;99.90;;;;;;1967349;72;21529;-77
2021/07/04 08:27:57;;;;;;;1.90;1.80;;;25.90;99.90;;;;;;1984083;72;21528;-80
2021/07/04 08:30:23;;;;;;;3.77;2.20;;;25.30;99.90;;;;;;1972602;72;21506;-83
2021/07/04 08:32:49;;;;;;;2.37;2.05;;;25.10;99.90;;;;;;1970901;72;21036;-84
2021/07/04 08:35:15;;;;;;;1.82;1.72;;;25.50;99.90;;;;;;1976957;72;21031;-80
2021/07/04 08:37:41;;;;;;;6.85;2.10;;;25.50;99.90;;;;;;1975887;72;21108;-78
2021/07/04 08:40:08;;;;;;;3.83;2.62;;;24.90;99.90;;;;;;1985025;72;21054;-79
2021/07/04 08:42:34;;;;;;;3.25;2.12;;;24.70;99.90;;;;;;1977627;72;21060;-84
2021/07/04 08:45:01;;;;;;;3.85;2.08;;;24.80;99.90;;;;;;1977446;72;21112;-83
2021/07/04 08:47:27;;;;;;;4.00;2.35;;;25.20;99.90;;;;;;1977734;72;21071;-84
2021/07/04 08:49:53;;;;;;;3.05;2.42;;;25.70;99.90;;;;;;1970808;72;21056;-82
2021/07/04 08:52:19;;;;;;;2.00;1.90;;;25.70;99.90;;;;;;1975011;72;21132;-82
2021/07/04 08:54:45;;;;;;;1.95;1.72;;;25.20;99.90;;;;;;1975660;72;21059;-82
2021/07/04 08:57:11;;;;;;;1.50;1.40;;;25.40;99.90;;;;;;1974380;72;21102;-79
2021/07/04 08:59:37;;;;;;;2.15;1.92;;;24.90;99.90;;;;;;1977045;72;21031;-83
2021/07/04 09:02:04;;;;;;;2.75;1.80;;;25.00;99.90;;;;;;1971438;72;21544;-81
2021/07/04 09:04:30;;;;;;;3.25;1.80;;;25.40;99.90;;;;;;1975331;72;21044;-79
2021/07/04 09:06:56;;;;;;;3.42;2.17;;;24.90;99.90;;;;;;1973040;72;21054;-76
2021/07/04 09:09:24;;;;;;;3.20;2.05;;;24.90;99.90;;;;;;1982847;72;21067;-73
2021/07/04 09:11:57;;;;;;;3.10;2.05;;;24.80;99.90;;;;;;1981376;72;21063;-79
2021/07/04 09:14:28;;;;;;;2.05;1.70;;;24.30;99.90;;;;;;1964505;72;21046;-80
2021/07/04 09:16:56;;;;;;;2.20;1.98;;;24.40;99.90;;;;;;1976829;72;21472;-75
2021/07/04 09:19:25;;;;;;;2.95;1.98;;;24.80;99.90;;;;;;1971235;72;21116;-79
2021/07/04 09:21:51;;;;;;;6.37;1.90;;;24.70;99.90;;;;;;1974559;72;21522;-83
2021/07/04 09:24:17;;;;;;;2.02;1.62;;;25.10;99.90;;;;;;1974405;72;21420;-79
2021/07/04 09:26:44;;;;;;;2.62;1.60;;;25.40;99.90;;;;;;1971132;72;21693;-77
2021/07/04 09:29:10;;;;;;;2.10;1.90;;;24.70;99.90;;;;;;1971132;72;21517;-79
2021/07/04 09:31:36;;;;;;;3.05;2.67;;;24.90;99.90;;;;;;1971478;72;21431;-80
2021/07/04 09:34:02;;;;;;;2.33;1.98;;;24.80;99.90;;;;;;1991487;72;21478;-78
2021/07/04 09:36:28;;;;;;;1.85;1.75;;;24.60;99.90;;;;;;1975563;72;21479;-77
2021/07/04 09:38:54;;;;;;;2.37;1.82;;;24.60;99.90;;;;;;1972999;72;21062;-76
2021/07/04 09:41:21;;;;;;;12.18;1.80;;;24.80;99.90;;;;;;1978641;72;21054;-78
2021/07/04 09:43:47;;;;;;;3.65;1.90;;;25.20;99.90;;;;;;1978926;72;21120;-79
2021/07/04 09:46:13;;;;;;;1.80;1.67;;;25.20;99.90;;;;;;1984634;72;21043;-78
2021/07/04 09:48:39;;;;;;;4.67;1.47;;;25.10;99.90;;;;;;1970856;72;21076;-80
2021/07/04 09:51:11;;;;;;;2.87;1.70;;;25.40;99.90;;;;;;1976539;72;21071;-78
2021/07/04 09:53:33;;;;;;;3.60;1.67;;;25.20;99.90;;;;;;1977567;72;21047;-79
2021/07/04 09:55:59;;;;;;;12.18;1.77;;;25.40;99.90;;;;;;1970587;72;21059;-80
2021/07/04 09:58:25;;;;;;;3.02;1.62;;;26.20;99.90;;;;;;1974337;72;21067;-86
2021/07/04 10:00:51;;;;;;;2.45;1.55;;;26.50;99.90;;;;;;1972379;72;21534;-86
2021/07/04 10:03:18;;;;;;;2.87;1.82;;;26.10;99.90;;;;;;1980443;72;21031;-76
2021/07/04 10:05:44;;;;;;;7.40;2.55;;;26.10;99.90;;;;;;1991261;72;21084;-89
2021/07/04 10:08:10;;;;;;;2.02;1.60;;;26.50;99.90;;;;;;1974551;72;21038;-79
2021/07/04 10:10:36;;;;;;;2.70;1.55;;;26.60;99.90;;;;;;1980688;72;21124;-84
2021/07/04 10:13:02;;;;;;;2.22;1.70;;;26.20;99.90;;;;;;1987059;72;21113;-85
2021/07/04 10:15:28;;;;;;;1.80;1.70;;;26.30;99.90;;;;;;1974538;72;21073;-81
2021/07/04 10:17:54;;;;;;;5.35;1.60;;;26.60;99.90;;;;;;1974496;72;21060;-81
2021/07/04 10:20:20;;;;;;;1.65;1.55;;;26.40;99.90;;;;;;1971257;72;21125;-80
2021/07/04 10:22:47;;;;;;;2.30;1.92;;;26.30;99.90;;;;;;1971372;72;21161;-79
2021/07/04 10:25:13;;;;;;;2.02;1.80;;;26.00;99.90;;;;;;1980510;72;21032;-80
2021/07/04 10:27:39;;;;;;;2.30;1.60;;;26.20;99.90;;;;;;1971287;72;21446;-79
2021/07/04 10:30:05;;;;;;;1.80;1.70;;;26.30;99.90;;;;;;1974899;72;21576;-80
2021/07/04 10:32:31;;;;;;;6.83;2.00;;;25.60;99.90;;;;;;1970690;72;21572;-80
2021/07/04 10:34:57;;;;;;;2.15;1.87;;;25.10;99.90;;;;;;1974417;73;21481;-79
2021/07/04 10:37:23;;;;;;;3.12;1.87;;;25.10;99.90;;;;;;1975406;72;21461;-78
2021/07/04 10:39:50;;;;;;;2.15;1.95;;;25.10;99.90;;;;;;1972870;72;21463;-79
2021/07/04 10:42:16;;;;;;;1.87;1.77;;;25.20;99.90;;;;;;1972813;72;21502;-78
2021/07/04 10:44:42;;;;;;;4.40;1.98;;;24.90;99.90;;;;;;1972145;72;21111;-78
2021/07/04 10:47:08;;;;;;;1.70;1.60;;;24.70;99.90;;;;;;1971229;72;21108;-76
2021/07/04 10:49:36;;;;;;;1.82;1.62;;;24.50;99.90;;;;;;1980853;72;21117;-75
2021/07/04 10:52:02;;;;;;;4.50;1.80;;;24.40;99.90;;;;;;1978390;72;21171;-75
2021/07/04 10:54:28;;;;;;;2.80;1.75;;;24.60;99.90;;;;;;1971742;72;21125;-76
2021/07/04 10:56:54;;;;;;;8.10;2.40;;;24.90;99.90;;;;;;1979395;72;21040;-79
2021/07/04 10:59:20;;;;;;;2.08;1.87;;;24.80;99.90;;;;;;1975900;72;21037;-77
2021/07/04 11:01:47;;;;;;;4.67;1.90;;;25.20;99.90;;;;;;1972717;72;21133;-81
2021/07/04 11:04:13;;;;;;;3.75;1.95;;;25.30;99.90;;;;;;1976211;72;21124;-80
2021/07/04 11:06:39;;;;;;;1.98;1.87;;;25.10;99.90;;;;;;1979030;72;21105;-79
2021/07/04 11:09:05;;;;;;;3.45;1.90;;;25.10;99.90;;;;;;1974426;73;21036;-80
2021/07/04 11:11:31;;;;;;;3.85;2.05;;;24.60;99.90;;;;;;1974531;73;21047;-79
2021/07/04 11:13:57;;;;;;;1.72;1.62;;;24.40;99.90;;;;;;1974189;72;21046;-81
2021/07/04 11:16:23;;;;;;;1.80;1.67;;;24.60;99.90;;;;;;1979747;72;21064;-80
2021/07/04 11:18:51;;;;;;;3.12;1.50;;;24.80;99.90;;;;;;1971503;72;21555;-79
2021/07/04 11:21:17;;;;;;;10.40;4.95;;;25.10;99.90;;;;;;1979922;71;21013;-80
2021/07/04 11:23:43;;;;;;;2.47;1.90;;;25.30;99.90;;;;;;1976487;71;21059;-81
2021/07/04 11:26:09;;;;;;;3.10;1.70;;;25.40;99.90;;;;;;1971586;72;21056;-81
2021/07/04 11:28:35;;;;;;;3.70;2.77;;;25.40;99.90;;;;;;1971114;72;21066;-81
2021/07/04 11:31:05;;;;;;;2.10;2.00;;;25.60;99.90;;;;;;1973032;72;21095;-81
2021/07/04 11:33:42;;;;;;;6.65;1.52;;;26.10;99.90;;;;;;1974548;72;21533;-80
2021/07/04 11:36:08;;;;;;;2.15;1.92;;;26.60;99.90;;;;;;1967634;72;21157;-81
2021/07/04 11:38:35;;;;;;;1.60;1.50;;;26.60;99.90;;;;;;1983500;72;21059;-79
2021/07/04 11:41:01;;;;;;;3.75;1.85;;;26.90;99.90;;;;;;1977579;72;21487;-79
2021/07/04 11:43:27;;;;;;;4.83;1.75;;;26.70;99.90;;;;;;1971884;72;21552;-80
2021/07/04 11:45:53;;;;;;;2.10;1.80;;;26.30;99.90;;;;;;1976422;72;21451;-79
2021/07/04 11:48:19;;;;;;;2.58;2.37;;;25.50;99.90;;;;;;1975125;72;21451;-79
2021/07/04 11:50:50;;;;;;;2.42;1.87;;;25.10;99.90;;;;;;1978516;72;21513;-81
2021/07/04 11:53:13;;;;;;;1.60;1.50;;;25.40;99.90;;;;;;1971048;72;21091;-81
2021/07/04 11:55:39;;;;;;;1.77;1.60;;;25.60;99.90;;;;;;1991290;72;20996;-82
2021/07/04 11:58:05;;;;;;;1.80;1.67;;;25.70;99.90;;;;;;1978607;72;21058;-79
2021/07/04 12:00:32;;;;;;;1.80;1.70;;;26.30;99.90;;;;;;1984852;72;21324;-80
2021/07/04 12:02:58;;;;;;;1.62;1.52;;;26.40;99.90;;;;;;1982038;72;21120;-81
2021/07/04 12:05:24;;;;;;;1.50;1.40;;;26.20;99.90;;;;;;1979477;72;21024;-80
2021/07/04 12:07:50;;;;;;;2.70;1.57;;;26.20;99.90;;;;;;1974434;72;21040;-80
2021/07/04 12:10:16;;;;;;;1.57;1.47;;;26.10;99.90;;;;;;1976894;72;21062;-80
2021/07/04 12:12:42;;;;;;;1.57;1.47;;;25.50;99.90;;;;;;1982158;72;21090;-81
2021/07/04 12:15:08;;;;;;;1.95;1.70;;;25.30;99.90;;;;;;1991782;72;21042;-79
2021/07/04 12:17:36;;;;;;;1.72;1.52;;;25.10;99.90;;;;;;1978550;72;21092;-80
2021/07/04 12:20:02;;;;;;;2.55;1.70;;;25.10;99.90;;;;;;1971256;72;21140;-81
2021/07/04 12:22:28;;;;;;;1.80;1.70;;;24.80;99.90;;;;;;1971064;72;21067;-81
2021/07/04 12:24:55;;;;;;;3.12;1.55;;;24.70;99.90;;;;;;1967779;72;21054;-80
2021/07/04 12:27:21;;;;;;;2.00;1.47;;;24.60;99.90;;;;;;1966183;72;21054;-80
2021/07/04 12:29:47;;;;;;;1.57;1.47;;;24.50;99.90;;;;;;1974128;72;21150;-80
2021/07/04 12:32:13;;;;;;;1.60;1.50;;;24.80;99.90;;;;;;1970911;72;21104;-80
2021/07/04 12:34:39;;;;;;;1.50;1.37;;;25.30;99.90;;;;;;1973414;72;21108;-81
2021/07/04 12:37:05;;;;;;;2.12;1.80;;;25.50;99.90;;;;;;1985132;72;21055;-81
2021/07/04 12:39:31;;;;;;;1.80;1.70;;;26.00;99.90;;;;;;1977597;72;21063;-80